sim
Sign-in with your pilot id or email,
or register
Callsign
Passwort

Schedule Details

Flight Number: OEO1718
Departure: Munster Osnabruck International -?Airport (EDDG) at 05:45
Arrival: Fuerteventura Airport (GCFV) at 10:35

Weather Information
Getting current METAR information for EDDG 181950Z 07005KT 330V130 CAVOK 17/01 Q1027 NOSIG
Getting current METAR information for GCFV 182000Z 36016KT 9999 FEW045 18/11 Q1019

Schedule Frequency

Route Map